Yeoman Bank — ELOG5 — position and weather

sailwx.info

Track history (hours):
 
Tides and Currents Weather Stations Pressure Air Temp Water Temp Dewpoint Dewpoint Depression Visibility Wind Speed Wind Dir Waves Ship Positions

Yeoman Bank

Last reported at 2018-Jan-23 08:00 UTC. Time now 2018-Jan-23 08:21 UTC.
Position N 51°30' W 002°43'.

Length 205 m; draft 11.7 m.

Type: Cargo ship. MMSI: 636009548.

Date/timePositionNaut miles runAvg speedWind from/ knotsBaromVisibWave heightAir tempDewpointWater temp
2018-Jan-23 08:00N 51°30' W 002°43'0 0.0
2018-Jan-23 07:30N 51°30' W 002°43'0 0.0
2018-Jan-23 07:00N 51°30' W 002°43'0 0.0
2018-Jan-23 06:30N 51°30' W 002°43'0 0.0
2018-Jan-23 06:00N 51°30' W 002°43'0 0.0
2018-Jan-23 05:30N 51°30' W 002°43'0 0.0
2018-Jan-23 05:00N 51°30' W 002°43'0 0.0
2018-Jan-23 04:30N 51°30' W 002°43'0 0.0
2018-Jan-23 04:00N 51°30' W 002°43'0 0.0
2018-Jan-23 03:30N 51°30' W 002°43'0 0.0
2018-Jan-23 03:00N 51°30' W 002°43'0 0.0
2018-Jan-23 02:30N 51°30' W 002°43'0 0.0
2018-Jan-23 02:00N 51°30' W 002°43'0 0.0
2018-Jan-23 01:30N 51°30' W 002°43'0 0.0
2018-Jan-23 01:00N 51°30' W 002°43'0 0.0
2018-Jan-23 00:30N 51°30' W 002°43'0 0.0
2018-Jan-23 00:00N 51°30' W 002°43'0 0.2
2018-Jan-22 23:30N 51°30' W 002°43'0 0.4
2018-Jan-22 23:00N 51°30' W 002°44'0 0.5
2018-Jan-22 22:30N 51°30' W 002°44'2 3.3
2018-Jan-22 22:00N 51°30' W 002°46'5 9.5
2018-Jan-22 21:30N 51°28' W 002°53'4 7.9
2018-Jan-22 21:01N 51°27' W 002°59'24 7.8
2018-Jan-22 17:55N 51°19' W 003°36'35 9.0
2018-Jan-22 14:01N 51°10' W 004°30'011.8
2018-Jan-22 14:00N 51°10' W 004°30'610.7
2018-Jan-22 13:29N 51°06' W 004°37'510.5
2018-Jan-22 13:00N 51°02' W 004°42'611.0
2018-Jan-22 12:30N 50°58' W 004°49'511.0
2018-Jan-22 12:00N 50°55' W 004°55'611.2
2018-Jan-22 11:30N 50°51' W 005°01'611.5
2018-Jan-22 11:00N 50°46' W 005°07'611.6
2018-Jan-22 10:30N 50°42' W 005°14'611.7
2018-Jan-22 10:00N 50°38' W 005°20'611.9
2018-Jan-22 09:30N 50°34' W 005°27'611.7
2018-Jan-22 09:00N 50°30' W 005°33'612.3
2018-Jan-22 08:31N 50°26' W 005°41'612.6
2018-Jan-22 08:00N 50°22' W 005°49'611.4
2018-Jan-22 07:30N 50°17' W 005°53'1312.5
2018-Jan-22 06:26N 50°04' W 005°53'  
2018-Jan-19 22:04N 39°12' W 009°53'111.6
2018-Jan-19 22:00N 39°11' W 009°53'611.6
2018-Jan-19 21:27N 39°04' W 009°53'511.7
2018-Jan-19 21:00N 38°59' W 009°53'611.6
2018-Jan-19 20:30N 38°53' W 009°53'611.6
2018-Jan-19 20:00N 38°48' W 009°53'611.7
2018-Jan-19 19:30N 38°42' W 009°52'612.0
2018-Jan-19 19:00N 38°36' W 009°50'611.8
2018-Jan-19 18:30N 38°30' W 009°48'611.6
2018-Jan-19 18:00N 38°25' W 009°46'1911.5
2018-Jan-19 16:22N 38°06' W 009°41'11010.5
2018-Jan-19 05:51N 36°33' W 008°26'512.8
2018-Jan-19 05:29N 36°32' W 008°21'13512.6
2018-Jan-18 18:47N 35°58' W 005°39'511.6
2018-Jan-18 18:22N 35°59' W 005°33'411.9
2018-Jan-18 18:00N 36°00' W 005°28'611.4
2018-Jan-18 17:29N 36°02' W 005°21'510.9
2018-Jan-18 17:00N 36°02' W 005°14'611.2
2018-Jan-18 16:31N 36°03' W 005°08'611.4
2018-Jan-18 16:01N 36°06' W 005°01'611.5
2018-Jan-18 15:30N 36°07' W 004°54'  
Track history (hours):
 
Tides and Currents Weather Stations Pressure Air Temp Water Temp Dewpoint Dewpoint Depression Visibility Wind Speed Wind Dir Waves Ship Positions

Yeoman Bank

Last reported at 2018-Jan-23 08:00 UTC. Time now 2018-Jan-23 08:21 UTC.
Position N 51°30' W 002°43'.

Length 205 m; draft 11.7 m.

Type: Cargo ship. MMSI: 636009548.

Date/timePositionNaut miles runAvg speedWind from/ knotsBaromVisibWave heightAir tempDewpointWater temp
2018-Jan-23 08:00N 51°30' W 002°43'0 0.0
2018-Jan-23 07:30N 51°30' W 002°43'0 0.0
2018-Jan-23 07:00N 51°30' W 002°43'0 0.0
2018-Jan-23 06:30N 51°30' W 002°43'0 0.0
2018-Jan-23 06:00N 51°30' W 002°43'0 0.0
2018-Jan-23 05:30N 51°30' W 002°43'0 0.0
2018-Jan-23 05:00N 51°30' W 002°43'0 0.0
2018-Jan-23 04:30N 51°30' W 002°43'0 0.0
2018-Jan-23 04:00N 51°30' W 002°43'0 0.0
2018-Jan-23 03:30N 51°30' W 002°43'0 0.0
2018-Jan-23 03:00N 51°30' W 002°43'0 0.0
2018-Jan-23 02:30N 51°30' W 002°43'0 0.0
2018-Jan-23 02:00N 51°30' W 002°43'0 0.0
2018-Jan-23 01:30N 51°30' W 002°43'0 0.0
2018-Jan-23 01:00N 51°30' W 002°43'0 0.0
2018-Jan-23 00:30N 51°30' W 002°43'0 0.0
2018-Jan-23 00:00N 51°30' W 002°43'0 0.2
2018-Jan-22 23:30N 51°30' W 002°43'0 0.4
2018-Jan-22 23:00N 51°30' W 002°44'0 0.5
2018-Jan-22 22:30N 51°30' W 002°44'2 3.3
2018-Jan-22 22:00N 51°30' W 002°46'5 9.5
2018-Jan-22 21:30N 51°28' W 002°53'4 7.9
2018-Jan-22 21:01N 51°27' W 002°59'24 7.8
2018-Jan-22 17:55N 51°19' W 003°36'35 9.0
2018-Jan-22 14:01N 51°10' W 004°30'011.8
2018-Jan-22 14:00N 51°10' W 004°30'610.7
2018-Jan-22 13:29N 51°06' W 004°37'510.5
2018-Jan-22 13:00N 51°02' W 004°42'611.0
2018-Jan-22 12:30N 50°58' W 004°49'511.0
2018-Jan-22 12:00N 50°55' W 004°55'611.2
2018-Jan-22 11:30N 50°51' W 005°01'611.5
2018-Jan-22 11:00N 50°46' W 005°07'611.6
2018-Jan-22 10:30N 50°42' W 005°14'611.7
2018-Jan-22 10:00N 50°38' W 005°20'611.9
2018-Jan-22 09:30N 50°34' W 005°27'611.7
2018-Jan-22 09:00N 50°30' W 005°33'612.3
2018-Jan-22 08:31N 50°26' W 005°41'612.6
2018-Jan-22 08:00N 50°22' W 005°49'611.4
2018-Jan-22 07:30N 50°17' W 005°53'1312.5
2018-Jan-22 06:26N 50°04' W 005°53'  
2018-Jan-19 22:04N 39°12' W 009°53'111.6
2018-Jan-19 22:00N 39°11' W 009°53'611.6
2018-Jan-19 21:27N 39°04' W 009°53'511.7
2018-Jan-19 21:00N 38°59' W 009°53'611.6
2018-Jan-19 20:30N 38°53' W 009°53'611.6
2018-Jan-19 20:00N 38°48' W 009°53'611.7
2018-Jan-19 19:30N 38°42' W 009°52'612.0
2018-Jan-19 19:00N 38°36' W 009°50'611.8
2018-Jan-19 18:30N 38°30' W 009°48'611.6
2018-Jan-19 18:00N 38°25' W 009°46'1911.5
2018-Jan-19 16:22N 38°06' W 009°41'11010.5
2018-Jan-19 05:51N 36°33' W 008°26'512.8
2018-Jan-19 05:29N 36°32' W 008°21'13512.6
2018-Jan-18 18:47N 35°58' W 005°39'511.6
2018-Jan-18 18:22N 35°59' W 005°33'411.9
2018-Jan-18 18:00N 36°00' W 005°28'611.4
2018-Jan-18 17:29N 36°02' W 005°21'510.9
2018-Jan-18 17:00N 36°02' W 005°14'611.2
2018-Jan-18 16:31N 36°03' W 005°08'611.4
2018-Jan-18 16:01N 36°06' W 005°01'611.5
2018-Jan-18 15:30N 36°07' W 004°54'  

Dump ship's entire track history